Trident, Montana
Current Conditions -  °F | °C
As of 2:56 PM on Monday 22 Dec 2014 (Local Time) from KBZN Reporting Station
Overcast Overcast  
Wind Chill: 31°   Ceiling: 5500
Heat Index: 35°   Visibility: 9mi
Dew Point: 23°   Wind: 5mph
Humidity: 61%   Direction: 270°W
Pressure: 29.97"   Gusts: NA
Location:  45.8877°N, 111.462°W
Report Text: KBZN 222156Z 27004KT 9SM OVC055 02/M05 A2997 RMK AO2 SNB24E55 SLP173 P0000 T00171050
Loading
Personal Weather Stations






























Interactive Weather Map New forecast layout! Learn more

10-Day Weather Forecast

Advertisements
Track Severe Weather on mobile